sensor_id;sensor_type;location;lat;lon;timestamp;pressure;altitude;pressure_sealevel;temperature;humidity
50380;BME280;37474;59.468;18.040;2022-08-21T00:02:12;100983.47;;;16.21;100.00
50380;BME280;37474;59.468;18.040;2022-08-21T00:04:40;100999.31;;;16.10;100.00
50380;BME280;37474;59.468;18.040;2022-08-21T00:07:25;100993.78;;;16.13;100.00
50380;BME280;37474;59.468;18.040;2022-08-21T00:09:53;100986.81;;;16.23;100.00
50380;BME280;37474;59.468;18.040;2022-08-21T00:12:21;100985.38;;;16.08;100.00
50380;BME280;37474;59.468;18.040;2022-08-21T00:14:51;100984.13;;;15.89;100.00
50380;BME280;37474;59.468;18.040;2022-08-21T00:17:25;100969.13;;;15.90;100.00
50380;BME280;37474;59.468;18.040;2022-08-21T00:19:53;100969.13;;;15.90;100.00
50380;BME280;37474;59.468;18.040;2022-08-21T00:22:22;100968.06;;;16.03;100.00
50380;BME280;37474;59.468;18.040;2022-08-21T00:24:53;100971.06;;;16.10;100.00
50380;BME280;37474;59.468;18.040;2022-08-21T00:27:22;100970.97;;;16.12;100.00
50380;BME280;37474;59.468;18.040;2022-08-21T00:29:50;100974.31;;;16.14;100.00
50380;BME280;37474;59.468;18.040;2022-08-21T00:32:22;100977.09;;;16.12;100.00
50380;BME280;37474;59.468;18.040;2022-08-21T00:34:52;100989.56;;;16.10;100.00
50380;BME280;37474;59.468;18.040;2022-08-21T00:37:22;100985.13;;;16.11;100.00
50380;BME280;37474;59.468;18.040;2022-08-21T00:39:52;100984.06;;;16.13;100.00
50380;BME280;37474;59.468;18.040;2022-08-21T00:42:23;100983.34;;;16.11;100.00
50380;BME280;37474;59.468;18.040;2022-08-21T00:44:51;100975.75;;;15.95;100.00
50380;BME280;37474;59.468;18.040;2022-08-21T00:47:21;100971.47;;;15.70;100.00
50380;BME280;37474;59.468;18.040;2022-08-21T00:49:51;100986.06;;;15.87;100.00
50380;BME280;37474;59.468;18.040;2022-08-21T00:52:27;100976.38;;;15.64;100.00
50380;BME280;37474;59.468;18.040;2022-08-21T00:54:59;100982.59;;;15.52;100.00
50380;BME280;37474;59.468;18.040;2022-08-21T00:57:39;100983.31;;;15.54;100.00
50380;BME280;37474;59.468;18.040;2022-08-21T01:00:14;100979.44;;;15.47;100.00
50380;BME280;37474;59.468;18.040;2022-08-21T01:02:45;100977.84;;;15.57;100.00
50380;BME280;37474;59.468;18.040;2022-08-21T01:05:16;100973.66;;;15.42;100.00
50380;BME280;37474;59.468;18.040;2022-08-21T01:07:45;100970.06;;;15.43;100.00
50380;BME280;37474;59.468;18.040;2022-08-21T01:10:16;100974.41;;;15.44;100.00
50380;BME280;37474;59.468;18.040;2022-08-21T01:12:50;100974.00;;;15.37;100.00
50380;BME280;37474;59.468;18.040;2022-08-21T01:15:23;100971.41;;;15.48;100.00
50380;BME280;37474;59.468;18.040;2022-08-21T01:17:54;100975.84;;;15.48;100.00
50380;BME280;37474;59.468;18.040;2022-08-21T01:20:25;100978.00;;;15.43;100.00
50380;BME280;37474;59.468;18.040;2022-08-21T01:22:59;100963.84;;;15.44;100.00
50380;BME280;37474;59.468;18.040;2022-08-21T01:25:32;100959.41;;;15.44;100.00
50380;BME280;37474;59.468;18.040;2022-08-21T01:28:04;100955.25;;;15.29;100.00
50380;BME280;37474;59.468;18.040;2022-08-21T01:30:37;100948.91;;;15.08;100.00
50380;BME280;37474;59.468;18.040;2022-08-21T01:33:06;100948.31;;;15.04;100.00
50380;BME280;37474;59.468;18.040;2022-08-21T01:35:36;100953.31;;;14.96;100.00
50380;BME280;37474;59.468;18.040;2022-08-21T01:38:08;100951.84;;;14.92;100.00
50380;BME280;37474;59.468;18.040;2022-08-21T01:40:36;100949.59;;;14.98;100.00
50380;BME280;37474;59.468;18.040;2022-08-21T01:43:06;100939.16;;;14.97;100.00
50380;BME280;37474;59.468;18.040;2022-08-21T01:45:36;100941.91;;;15.19;100.00
50380;BME280;37474;59.468;18.040;2022-08-21T01:48:04;100947.97;;;15.09;100.00
50380;BME280;37474;59.468;18.040;2022-08-21T01:50:36;100958.56;;;15.20;100.00
50380;BME280;37474;59.468;18.040;2022-08-21T01:53:08;100953.91;;;15.23;100.00
50380;BME280;37474;59.468;18.040;2022-08-21T01:55:35;100958.84;;;15.28;100.00
50380;BME280;37474;59.468;18.040;2022-08-21T01:58:05;100966.81;;;15.39;100.00
50380;BME280;37474;59.468;18.040;2022-08-21T02:00:35;100970.53;;;15.36;100.00
50380;BME280;37474;59.468;18.040;2022-08-21T02:03:03;100969.56;;;15.37;100.00
50380;BME280;37474;59.468;18.040;2022-08-21T02:05:34;100970.28;;;15.40;100.00
50380;BME280;37474;59.468;18.040;2022-08-21T02:08:06;100971.09;;;15.29;100.00
50380;BME280;37474;59.468;18.040;2022-08-21T02:10:38;100982.25;;;15.32;100.00
50380;BME280;37474;59.468;18.040;2022-08-21T02:13:14;100972.38;;;15.23;100.00
50380;BME280;37474;59.468;18.040;2022-08-21T02:15:44;100974.00;;;15.13;100.00
50380;BME280;37474;59.468;18.040;2022-08-21T02:18:14;100973.22;;;15.00;100.00
50380;BME280;37474;59.468;18.040;2022-08-21T02:20:47;100963.44;;;14.89;100.00
50380;BME280;37474;59.468;18.040;2022-08-21T02:23:22;100959.78;;;14.79;100.00
50380;BME280;37474;59.468;18.040;2022-08-21T02:25:56;100970.00;;;14.84;100.00
50380;BME280;37474;59.468;18.040;2022-08-21T02:28:26;100957.78;;;14.83;100.00
50380;BME280;37474;59.468;18.040;2022-08-21T02:30:55;100954.66;;;14.65;100.00
50380;BME280;37474;59.468;18.040;2022-08-21T02:33:26;100951.91;;;14.66;100.00
50380;BME280;37474;59.468;18.040;2022-08-21T02:35:58;100960.94;;;14.88;100.00
50380;BME280;37474;59.468;18.040;2022-08-21T02:38:27;100970.81;;;14.97;100.00
50380;BME280;37474;59.468;18.040;2022-08-21T02:40:57;100959.41;;;14.96;100.00
50380;BME280;37474;59.468;18.040;2022-08-21T02:43:29;100961.16;;;15.09;100.00
50380;BME280;37474;59.468;18.040;2022-08-21T02:45:57;100957.56;;;14.86;100.00
50380;BME280;37474;59.468;18.040;2022-08-21T02:48:27;100959.59;;;14.69;100.00
50380;BME280;37474;59.468;18.040;2022-08-21T02:51:02;100962.53;;;14.78;100.00
50380;BME280;37474;59.468;18.040;2022-08-21T02:53:31;100958.47;;;14.61;100.00
50380;BME280;37474;59.468;18.040;2022-08-21T02:56:05;100954.50;;;14.55;100.00
50380;BME280;37474;59.468;18.040;2022-08-21T02:58:36;100948.63;;;14.52;100.00
50380;BME280;37474;59.468;18.040;2022-08-21T03:01:09;100949.47;;;14.52;100.00
50380;BME280;37474;59.468;18.040;2022-08-21T03:03:38;100948.34;;;14.67;100.00
50380;BME280;37474;59.468;18.040;2022-08-21T03:06:13;100943.97;;;14.79;100.00
50380;BME280;37474;59.468;18.040;2022-08-21T03:08:43;100943.41;;;14.87;100.00
50380;BME280;37474;59.468;18.040;2022-08-21T03:11:16;100951.03;;;14.79;100.00
50380;BME280;37474;59.468;18.040;2022-08-21T03:13:45;100947.78;;;14.75;100.00
50380;BME280;37474;59.468;18.040;2022-08-21T03:16:13;100951.88;;;14.79;100.00
50380;BME280;37474;59.468;18.040;2022-08-21T03:18:43;100952.75;;;14.67;100.00
50380;BME280;37474;59.468;18.040;2022-08-21T03:21:13;100949.63;;;14.62;100.00
50380;BME280;37474;59.468;18.040;2022-08-21T03:23:41;100943.72;;;14.58;100.00
50380;BME280;37474;59.468;18.040;2022-08-21T03:26:11;100943.28;;;14.64;100.00
50380;BME280;37474;59.468;18.040;2022-08-21T03:28:42;100949.41;;;14.65;100.00
50380;BME280;37474;59.468;18.040;2022-08-21T03:31:10;100950.31;;;14.77;100.00
50380;BME280;37474;59.468;18.040;2022-08-21T03:33:40;100952.28;;;14.86;100.00
50380;BME280;37474;59.468;18.040;2022-08-21T03:36:10;100957.63;;;14.97;100.00
50380;BME280;37474;59.468;18.040;2022-08-21T03:38:39;100961.28;;;15.07;100.00
50380;BME280;37474;59.468;18.040;2022-08-21T03:41:07;100965.88;;;15.16;100.00
50380;BME280;37474;59.468;18.040;2022-08-21T03:43:37;100965.66;;;15.19;100.00
50380;BME280;37474;59.468;18.040;2022-08-21T03:46:09;100964.97;;;15.04;100.00
50380;BME280;37474;59.468;18.040;2022-08-21T03:48:40;100945.38;;;14.96;100.00
50380;BME280;37474;59.468;18.040;2022-08-21T03:51:08;100950.78;;;14.94;100.00
50380;BME280;37474;59.468;18.040;2022-08-21T03:53:38;100957.72;;;14.95;100.00
50380;BME280;37474;59.468;18.040;2022-08-21T03:56:08;100954.72;;;15.13;100.00
50380;BME280;37474;59.468;18.040;2022-08-21T03:58:36;100958.47;;;15.21;100.00
50380;BME280;37474;59.468;18.040;2022-08-21T04:01:05;100959.25;;;15.34;100.00
50380;BME280;37474;59.468;18.040;2022-08-21T04:03:37;100963.34;;;15.38;100.00
50380;BME280;37474;59.468;18.040;2022-08-21T04:06:07;100967.66;;;15.40;100.00
50380;BME280;37474;59.468;18.040;2022-08-21T04:08:38;100965.88;;;15.40;100.00
50380;BME280;37474;59.468;18.040;2022-08-21T04:11:11;100965.38;;;15.35;100.00
50380;BME280;37474;59.468;18.040;2022-08-21T04:13:41;100965.75;;;15.42;100.00
50380;BME280;37474;59.468;18.040;2022-08-21T04:16:10;100963.69;;;15.58;100.00
50380;BME280;37474;59.468;18.040;2022-08-21T04:18:41;100963.41;;;15.61;100.00
50380;BME280;37474;59.468;18.040;2022-08-21T04:21:12;100965.47;;;15.57;100.00
50380;BME280;37474;59.468;18.040;2022-08-21T04:23:42;100974.34;;;15.67;100.00
50380;BME280;37474;59.468;18.040;2022-08-21T04:26:12;100966.78;;;15.63;100.00
50380;BME280;37474;59.468;18.040;2022-08-21T04:28:40;100967.84;;;15.60;100.00
50380;BME280;37474;59.468;18.040;2022-08-21T04:31:12;100967.03;;;15.60;100.00
50380;BME280;37474;59.468;18.040;2022-08-21T04:33:43;100978.06;;;15.65;100.00
50380;BME280;37474;59.468;18.040;2022-08-21T04:36:11;100967.50;;;15.65;100.00
50380;BME280;37474;59.468;18.040;2022-08-21T04:38:43;100972.31;;;15.71;100.00
50380;BME280;37474;59.468;18.040;2022-08-21T04:41:13;100970.78;;;15.80;100.00
50380;BME280;37474;59.468;18.040;2022-08-21T04:43:41;100975.13;;;15.81;100.00
50380;BME280;37474;59.468;18.040;2022-08-21T04:46:11;100975.97;;;15.92;100.00
50380;BME280;37474;59.468;18.040;2022-08-21T04:48:42;100976.44;;;15.86;100.00
50380;BME280;37474;59.468;18.040;2022-08-21T04:51:15;100969.00;;;15.91;100.00
50380;BME280;37474;59.468;18.040;2022-08-21T04:53:52;100965.41;;;15.92;100.00
50380;BME280;37474;59.468;18.040;2022-08-21T04:56:23;100973.09;;;15.95;100.00
50380;BME280;37474;59.468;18.040;2022-08-21T04:58:58;100966.50;;;16.01;100.00
50380;BME280;37474;59.468;18.040;2022-08-21T05:01:31;100968.19;;;16.02;100.00
50380;BME280;37474;59.468;18.040;2022-08-21T05:04:05;100956.91;;;16.11;100.00
50380;BME280;37474;59.468;18.040;2022-08-21T05:06:38;100955.56;;;15.94;100.00
50380;BME280;37474;59.468;18.040;2022-08-21T05:09:12;100949.56;;;15.92;100.00
50380;BME280;37474;59.468;18.040;2022-08-21T05:11:42;100952.91;;;15.94;100.00
50380;BME280;37474;59.468;18.040;2022-08-21T05:14:13;100960.72;;;15.96;100.00
50380;BME280;37474;59.468;18.040;2022-08-21T05:16:41;100956.53;;;16.05;100.00
50380;BME280;37474;59.468;18.040;2022-08-21T05:19:11;100947.53;;;16.07;100.00
50380;BME280;37474;59.468;18.040;2022-08-21T05:21:43;100948.63;;;16.27;100.00
50380;BME280;37474;59.468;18.040;2022-08-21T05:24:14;100952.47;;;16.23;100.00
50380;BME280;37474;59.468;18.040;2022-08-21T05:26:42;100960.50;;;16.21;100.00
50380;BME280;37474;59.468;18.040;2022-08-21T05:29:14;100954.38;;;16.21;100.00
50380;BME280;37474;59.468;18.040;2022-08-21T05:31:47;100956.31;;;16.19;100.00
50380;BME280;37474;59.468;18.040;2022-08-21T05:34:21;100946.22;;;16.13;100.00
50380;BME280;37474;59.468;18.040;2022-08-21T05:36:51;100948.50;;;16.06;100.00
50380;BME280;37474;59.468;18.040;2022-08-21T05:39:23;100953.66;;;16.08;100.00
50380;BME280;37474;59.468;18.040;2022-08-21T05:41:51;100942.50;;;16.15;100.00
50380;BME280;37474;59.468;18.040;2022-08-21T05:44:19;100943.47;;;16.25;100.00
50380;BME280;37474;59.468;18.040;2022-08-21T05:46:50;100949.59;;;16.26;100.00
50380;BME280;37474;59.468;18.040;2022-08-21T05:49:19;100944.28;;;16.26;100.00
50380;BME280;37474;59.468;18.040;2022-08-21T05:51:47;100943.09;;;16.19;100.00
50380;BME280;37474;59.468;18.040;2022-08-21T05:54:19;100937.09;;;16.17;100.00
50380;BME280;37474;59.468;18.040;2022-08-21T05:56:47;100945.38;;;16.23;100.00
50380;BME280;37474;59.468;18.040;2022-08-21T05:59:15;100938.41;;;16.33;100.00
50380;BME280;37474;59.468;18.040;2022-08-21T06:01:47;100942.13;;;16.53;100.00
50380;BME280;37474;59.468;18.040;2022-08-21T06:04:15;100936.69;;;16.66;100.00
50380;BME280;37474;59.468;18.040;2022-08-21T06:06:44;100926.13;;;16.66;100.00
50380;BME280;37474;59.468;18.040;2022-08-21T06:09:16;100929.59;;;16.66;100.00
50380;BME280;37474;59.468;18.040;2022-08-21T06:11:44;100935.13;;;16.63;100.00
50380;BME280;37474;59.468;18.040;2022-08-21T06:14:13;100929.84;;;16.63;100.00
50380;BME280;37474;59.468;18.040;2022-08-21T06:16:46;100928.84;;;16.76;100.00
50380;BME280;37474;59.468;18.040;2022-08-21T06:19:14;100936.19;;;16.83;100.00
50380;BME280;37474;59.468;18.040;2022-08-21T06:21:43;100930.03;;;16.83;100.00
50380;BME280;37474;59.468;18.040;2022-08-21T06:24:13;100932.25;;;17.10;100.00
50380;BME280;37474;59.468;18.040;2022-08-21T06:26:41;100923.75;;;17.27;100.00
50380;BME280;37474;59.468;18.040;2022-08-21T06:29:09;100932.44;;;17.50;100.00
50380;BME280;37474;59.468;18.040;2022-08-21T06:31:43;100918.94;;;17.53;100.00
50380;BME280;37474;59.468;18.040;2022-08-21T06:34:13;100934.16;;;17.40;100.00
50380;BME280;37474;59.468;18.040;2022-08-21T06:36:47;100929.53;;;17.53;100.00
50380;BME280;37474;59.468;18.040;2022-08-21T06:39:15;100923.31;;;17.43;100.00
50380;BME280;37474;59.468;18.040;2022-08-21T06:41:58;100916.59;;;17.39;100.00
50380;BME280;37474;59.468;18.040;2022-08-21T06:44:29;100925.84;;;17.44;100.00
50380;BME280;37474;59.468;18.040;2022-08-21T06:46:57;100928.09;;;17.49;100.00
50380;BME280;37474;59.468;18.040;2022-08-21T06:49:27;100927.31;;;17.37;100.00
50380;BME280;37474;59.468;18.040;2022-08-21T06:52:00;100934.94;;;17.30;100.00
50380;BME280;37474;59.468;18.040;2022-08-21T06:54:32;100931.38;;;17.20;100.00
50380;BME280;37474;59.468;18.040;2022-08-21T06:57:02;100927.00;;;17.30;100.00
50380;BME280;37474;59.468;18.040;2022-08-21T06:59:30;100923.75;;;17.27;100.00
50380;BME280;37474;59.468;18.040;2022-08-21T07:02:01;100914.00;;;17.27;100.00
50380;BME280;37474;59.468;18.040;2022-08-21T07:04:29;100919.31;;;17.27;100.00
50380;BME280;37474;59.468;18.040;2022-08-21T07:06:57;100913.28;;;17.25;100.00
50380;BME280;37474;59.468;18.040;2022-08-21T07:09:26;100923.81;;;17.37;100.00
50380;BME280;37474;59.468;18.040;2022-08-21T07:11:59;100926.16;;;17.51;100.00
50380;BME280;37474;59.468;18.040;2022-08-21T07:14:26;100912.28;;;17.58;100.00
50380;BME280;37474;59.468;18.040;2022-08-21T07:16:54;100916.72;;;17.58;100.00
50380;BME280;37474;59.468;18.040;2022-08-21T07:19:24;100922.53;;;17.73;100.00
50380;BME280;37474;59.468;18.040;2022-08-21T07:21:54;100913.81;;;17.82;100.00
50380;BME280;37474;59.468;18.040;2022-08-21T07:24:28;100914.66;;;17.61;100.00
50380;BME280;37474;59.468;18.040;2022-08-21T07:26:56;100914.22;;;17.56;100.00
50380;BME280;37474;59.468;18.040;2022-08-21T07:29:24;100916.47;;;17.61;100.00
50380;BME280;37474;59.468;18.040;2022-08-21T07:31:54;100917.81;;;17.55;100.00
50380;BME280;37474;59.468;18.040;2022-08-21T07:34:22;100913.19;;;17.48;100.00
50380;BME280;37474;59.468;18.040;2022-08-21T07:36:52;100908.44;;;17.72;100.00
50380;BME280;37474;59.468;18.040;2022-08-21T07:39:22;100907.75;;;17.70;100.00
50380;BME280;37474;59.468;18.040;2022-08-21T07:41:52;100910.06;;;17.43;100.00
50380;BME280;37474;59.468;18.040;2022-08-21T07:44:21;100913.69;;;17.42;100.00
50380;BME280;37474;59.468;18.040;2022-08-21T07:46:49;100911.19;;;17.61;100.00
50380;BME280;37474;59.468;18.040;2022-08-21T07:49:17;100915.81;;;17.89;100.00
50380;BME280;37474;59.468;18.040;2022-08-21T07:51:45;100917.75;;;17.87;100.00
50380;BME280;37474;59.468;18.040;2022-08-21T07:54:15;100919.13;;;18.12;100.00
50380;BME280;37474;59.468;18.040;2022-08-21T07:56:53;100911.78;;;18.25;100.00
50380;BME280;37474;59.468;18.040;2022-08-21T07:59:24;100916.84;;;18.38;100.00
50380;BME280;37474;59.468;18.040;2022-08-21T08:01:52;100913.75;;;18.64;100.00
50380;BME280;37474;59.468;18.040;2022-08-21T08:04:19;100914.94;;;18.59;100.00
50380;BME280;37474;59.468;18.040;2022-08-21T08:06:54;100912.47;;;18.77;100.00
50380;BME280;37474;59.468;18.040;2022-08-21T08:09:22;100909.84;;;18.87;100.00
50380;BME280;37474;59.468;18.040;2022-08-21T08:11:49;100906.50;;;19.14;100.00
50380;BME280;37474;59.468;18.040;2022-08-21T08:14:23;100910.41;;;18.90;100.00
50380;BME280;37474;59.468;18.040;2022-08-21T08:16:57;100909.69;;;18.88;100.00
50380;BME280;37474;59.468;18.040;2022-08-21T08:19:29;100902.03;;;18.95;100.00
50380;BME280;37474;59.468;18.040;2022-08-21T08:21:58;100915.84;;;18.99;100.00
50380;BME280;37474;59.468;18.040;2022-08-21T08:24:25;100906.34;;;18.86;100.00
50380;BME280;37474;59.468;18.040;2022-08-21T08:26:58;100916.69;;;18.70;100.00
50380;BME280;37474;59.468;18.040;2022-08-21T08:29:29;100897.97;;;18.91;100.00
50380;BME280;37474;59.468;18.040;2022-08-21T08:31:57;100892.66;;;19.01;100.00
50380;BME280;37474;59.468;18.040;2022-08-21T08:34:25;100886.22;;;19.22;100.00
50380;BME280;37474;59.468;18.040;2022-08-21T08:36:54;100892.53;;;19.21;99.04
50380;BME280;37474;59.468;18.040;2022-08-21T08:39:26;100888.88;;;19.32;100.00
50380;BME280;37474;59.468;18.040;2022-08-21T08:41:59;100891.97;;;19.27;100.00
50380;BME280;37474;59.468;18.040;2022-08-21T08:44:56;100890.13;;;19.57;100.00
50380;BME280;37474;59.468;18.040;2022-08-21T08:47:27;100897.69;;;19.42;100.00
50380;BME280;37474;59.468;18.040;2022-08-21T08:50:01;100898.63;;;19.51;100.00
50380;BME280;37474;59.468;18.040;2022-08-21T08:52:32;100897.25;;;19.66;97.71
50380;BME280;37474;59.468;18.040;2022-08-21T08:55:05;100900.38;;;19.79;94.71
50380;BME280;37474;59.468;18.040;2022-08-21T08:57:37;100894.22;;;19.88;95.54
50380;BME280;37474;59.468;18.040;2022-08-21T09:00:12;100895.19;;;19.87;94.64
50380;BME280;37474;59.468;18.040;2022-08-21T09:02:45;100904.56;;;19.91;91.90
50380;BME280;37474;59.468;18.040;2022-08-21T09:05:21;100895.06;;;20.53;90.66
50380;BME280;37474;59.468;18.040;2022-08-21T09:08:00;100894.28;;;20.34;91.78
50380;BME280;37474;59.468;18.040;2022-08-21T09:10:40;100894.84;;;20.37;84.91
50380;BME280;37474;59.468;18.040;2022-08-21T09:13:21;100899.78;;;20.60;84.57
50380;BME280;37474;59.468;18.040;2022-08-21T09:15:57;100899.06;;;20.30;85.45
50380;BME280;37474;59.468;18.040;2022-08-21T09:18:38;100899.47;;;20.35;79.45
50380;BME280;37474;59.468;18.040;2022-08-21T09:21:16;100894.22;;;20.53;80.22
50380;BME280;37474;59.468;18.040;2022-08-21T09:23:54;100889.81;;;20.97;82.33
50380;BME280;37474;59.468;18.040;2022-08-21T09:26:24;100891.94;;;21.11;79.05
50380;BME280;37474;59.468;18.040;2022-08-21T09:28:55;100897.66;;;20.81;76.74
50380;BME280;37474;59.468;18.040;2022-08-21T09:31:27;100897.28;;;20.76;79.20
50380;BME280;37474;59.468;18.040;2022-08-21T09:34:00;100892.66;;;20.78;75.74
50380;BME280;37474;59.468;18.040;2022-08-21T09:36:35;100891.34;;;20.64;77.96
50380;BME280;37474;59.468;18.040;2022-08-21T09:39:08;100896.59;;;20.19;78.08
50380;BME280;37474;59.468;18.040;2022-08-21T09:41:37;100897.69;;;20.26;79.99
50380;BME280;37474;59.468;18.040;2022-08-21T09:44:08;100897.06;;;20.69;79.18
50380;BME280;37474;59.468;18.040;2022-08-21T09:46:38;100898.88;;;20.86;78.91
50380;BME280;37474;59.468;18.040;2022-08-21T09:49:27;100900.47;;;20.62;79.04
50380;BME280;37474;59.468;18.040;2022-08-21T09:51:56;100897.56;;;20.55;78.06
50380;BME280;37474;59.468;18.040;2022-08-21T09:54:30;100895.22;;;20.70;78.82
50380;BME280;37474;59.468;18.040;2022-08-21T09:57:00;100893.03;;;20.65;76.27
50380;BME280;37474;59.468;18.040;2022-08-21T09:59:50;100892.88;;;20.67;76.15
50380;BME280;37474;59.468;18.040;2022-08-21T10:02:28;100891.47;;;20.45;78.17
50380;BME280;37474;59.468;18.040;2022-08-21T10:05:01;100891.06;;;20.40;75.49
50380;BME280;37474;59.468;18.040;2022-08-21T10:07:31;100893.94;;;20.56;76.61
50380;BME280;37474;59.468;18.040;2022-08-21T10:10:05;100894.69;;;20.84;74.30
50380;BME280;37474;59.468;18.040;2022-08-21T10:12:42;100893.38;;;20.88;72.00
50380;BME280;37474;59.468;18.040;2022-08-21T10:15:20;100900.69;;;20.50;70.43
50380;BME280;37474;59.468;18.040;2022-08-21T10:18:01;100906.84;;;20.14;73.61
50380;BME280;37474;59.468;18.040;2022-08-21T10:20:40;100904.78;;;20.35;72.55
50380;BME280;37474;59.468;18.040;2022-08-21T10:23:26;100900.13;;;20.47;69.93
50380;BME280;37474;59.468;18.040;2022-08-21T10:26:02;100894.06;;;20.27;72.35
50380;BME280;37474;59.468;18.040;2022-08-21T10:28:44;100897.78;;;20.34;70.85
50380;BME280;37474;59.468;18.040;2022-08-21T10:31:30;100898.78;;;20.61;72.26
50380;BME280;37474;59.468;18.040;2022-08-21T10:34:13;100901.16;;;20.64;73.07
50380;BME280;37474;59.468;18.040;2022-08-21T10:36:47;100894.53;;;20.50;75.45
50380;BME280;37474;59.468;18.040;2022-08-21T10:39:21;100898.31;;;20.47;73.66
50380;BME280;37474;59.468;18.040;2022-08-21T10:42:24;100897.97;;;20.78;79.10
50380;BME280;37474;59.468;18.040;2022-08-21T10:45:09;100892.72;;;21.04;76.24
50380;BME280;37474;59.468;18.040;2022-08-21T10:47:43;100889.59;;;21.26;69.33
50380;BME280;37474;59.468;18.040;2022-08-21T10:50:28;100890.94;;;21.48;70.17
50380;BME280;37474;59.468;18.040;2022-08-21T10:53:08;100886.66;;;21.55;68.91
50380;BME280;37474;59.468;18.040;2022-08-21T10:55:41;100883.09;;;21.46;67.63
50380;BME280;37474;59.468;18.040;2022-08-21T10:58:19;100890.53;;;21.61;68.12
50380;BME280;37474;59.468;18.040;2022-08-21T11:00:49;100895.50;;;21.81;70.57
50380;BME280;37474;59.468;18.040;2022-08-21T11:03:29;100885.63;;;21.74;68.63
50380;BME280;37474;59.468;18.040;2022-08-21T11:06:05;100887.50;;;21.56;67.88
50380;BME280;37474;59.468;18.040;2022-08-21T11:08:42;100887.72;;;21.62;66.95
50380;BME280;37474;59.468;18.040;2022-08-21T11:11:16;100892.25;;;21.44;63.32
50380;BME280;37474;59.468;18.040;2022-08-21T11:13:54;100883.72;;;21.40;63.64
50380;BME280;37474;59.468;18.040;2022-08-21T11:16:26;100894.06;;;21.43;67.47
50380;BME280;37474;59.468;18.040;2022-08-21T11:19:04;100896.50;;;21.01;69.87
50380;BME280;37474;59.468;18.040;2022-08-21T11:21:41;100898.41;;;20.91;74.03
50380;BME280;37474;59.468;18.040;2022-08-21T11:24:33;100894.94;;;20.73;72.87
50380;BME280;37474;59.468;18.040;2022-08-21T11:27:06;100889.59;;;20.73;73.82
50380;BME280;37474;59.468;18.040;2022-08-21T11:29:39;100886.63;;;21.11;73.81
50380;BME280;37474;59.468;18.040;2022-08-21T11:32:24;100885.41;;;20.88;73.90
50380;BME280;37474;59.468;18.040;2022-08-21T11:35:04;100889.97;;;21.31;72.16
50380;BME280;37474;59.468;18.040;2022-08-21T11:37:45;100893.28;;;21.51;71.03
50380;BME280;37474;59.468;18.040;2022-08-21T11:40:31;100899.25;;;21.45;70.33
50380;BME280;37474;59.468;18.040;2022-08-21T11:43:06;100897.66;;;21.34;70.25
50380;BME280;37474;59.468;18.040;2022-08-21T11:45:47;100902.00;;;21.17;70.53
50380;BME280;37474;59.468;18.040;2022-08-21T11:48:28;100907.41;;;21.26;72.48
50380;BME280;37474;59.468;18.040;2022-08-21T11:51:06;100909.84;;;21.01;71.47
50380;BME280;37474;59.468;18.040;2022-08-21T11:53:39;100903.66;;;21.01;72.56
50380;BME280;37474;59.468;18.040;2022-08-21T11:56:23;100907.63;;;21.14;73.41
50380;BME280;37474;59.468;18.040;2022-08-21T11:58:56;100908.28;;;21.52;70.51
50380;BME280;37474;59.468;18.040;2022-08-21T12:01:31;100905.75;;;21.25;69.42
50380;BME280;37474;59.468;18.040;2022-08-21T12:04:02;100910.28;;;20.97;65.39
50380;BME280;37474;59.468;18.040;2022-08-21T12:06:36;100911.13;;;20.97;66.12
50380;BME280;37474;59.468;18.040;2022-08-21T12:09:08;100915.47;;;20.63;66.37
50380;BME280;37474;59.468;18.040;2022-08-21T12:11:48;100913.09;;;20.95;67.49
50380;BME280;37474;59.468;18.040;2022-08-21T12:14:18;100907.47;;;21.16;66.91
50380;BME280;37474;59.468;18.040;2022-08-21T12:16:49;100905.72;;;20.89;66.58
50380;BME280;37474;59.468;18.040;2022-08-21T12:19:29;100907.47;;;21.51;69.45
50380;BME280;37474;59.468;18.040;2022-08-21T12:22:11;100913.66;;;22.12;65.85
50380;BME280;37474;59.468;18.040;2022-08-21T12:24:43;100911.00;;;22.12;64.03
50380;BME280;37474;59.468;18.040;2022-08-21T12:27:21;100914.34;;;21.88;61.74
50380;BME280;37474;59.468;18.040;2022-08-21T12:29:55;100914.09;;;21.47;63.07
50380;BME280;37474;59.468;18.040;2022-08-21T12:32:28;100912.19;;;21.40;66.31
50380;BME280;37474;59.468;18.040;2022-08-21T12:35:02;100901.50;;;21.58;65.55
50380;BME280;37474;59.468;18.040;2022-08-21T12:37:37;100909.00;;;21.88;61.43
50380;BME280;37474;59.468;18.040;2022-08-21T12:42:59;100910.28;;;22.02;58.45
50380;BME280;37474;59.468;18.040;2022-08-21T12:45:31;100911.00;;;22.12;57.67
50380;BME280;37474;59.468;18.040;2022-08-21T12:48:06;100908.28;;;22.04;58.53
50380;BME280;37474;59.468;18.040;2022-08-21T12:50:40;100912.88;;;21.94;57.23
50380;BME280;37474;59.468;18.040;2022-08-21T12:53:23;100903.75;;;21.70;58.52
50380;BME280;37474;59.468;18.040;2022-08-21T12:55:55;100904.19;;;21.40;60.41
50380;BME280;37474;59.468;18.040;2022-08-21T12:58:31;100910.44;;;21.13;58.19
50380;BME280;37474;59.468;18.040;2022-08-21T13:01:01;100909.16;;;21.35;56.50
50380;BME280;37474;59.468;18.040;2022-08-21T13:03:30;100904.19;;;21.40;59.01